Time;durP1;ratioP1;P1;durP2;ratioP2;P2;SDS_P1;SDS_P2;PMS_P1;PMS_P2;Temp;Humidity;BMP_temperature;BMP_pressure;BME280_temperature;BME280_humidity;BME280_pressure;Samples;Min_cycle;Max_cycle;Signal;HPM_P1;HPM_P2
2023/04/15 00:01:47;;;;;;;27.17;19.50;;;;;;;15.61;46.45;91858.31;4993369;28;20043;-91
2023/04/15 00:04:12;;;;;;;26.45;19.50;;;;;;;15.57;46.65;91866.84;4961724;28;20048;-91
2023/04/15 00:06:38;;;;;;;28.77;19.15;;;;;;;15.55;46.39;91863.88;4985915;28;20050;-90
2023/04/15 00:09:04;;;;;;;26.70;19.88;;;;;;;15.52;46.68;91867.66;4969791;28;20556;-92
2023/04/15 00:11:30;;;;;;;28.20;18.23;;;;;;;15.57;46.29;91869.56;5002413;28;20038;-90
2023/04/15 00:13:55;;;;;;;27.67;19.42;;;;;;;15.55;46.47;91854.97;4975138;28;20093;-90
2023/04/15 00:16:21;;;;;;;28.02;18.70;;;;;;;15.51;46.35;91863.47;5000856;28;20390;-91
2023/04/15 00:18:46;;;;;;;26.35;18.17;;;;;;;15.49;46.67;91873.44;5002532;28;20031;-91
2023/04/15 00:21:11;;;;;;;27.75;17.95;;;;;;;15.52;46.70;91864.19;5000944;28;20046;-90
2023/04/15 00:23:37;;;;;;;20.65;17.10;;;;;;;15.49;46.32;91873.44;4999167;28;20035;-90
2023/04/15 00:26:02;;;;;;;27.35;19.02;;;;;;;15.48;46.65;91869.97;4983548;28;20425;-90
2023/04/15 00:28:28;;;;;;;27.65;18.15;;;;;;;15.49;46.73;91871.44;4967585;28;20031;-91
2023/04/15 00:30:53;;;;;;;22.92;16.75;;;;;;;15.47;46.46;91870.50;4970608;28;20042;-90
2023/04/15 00:33:19;;;;;;;25.83;18.38;;;;;;;15.48;46.67;91875.41;4964256;28;20265;-91
2023/04/15 00:35:45;;;;;;;24.83;17.13;;;;;;;15.50;46.74;91867.47;4970838;28;20520;-91
2023/04/15 00:38:11;;;;;;;22.73;17.30;;;;;;;15.49;46.73;91870.72;4974269;28;20064;-90
2023/04/15 00:40:36;;;;;;;24.63;18.25;;;;;;;15.46;46.77;91867.03;4970435;28;20604;-91
2023/04/15 00:43:03;;;;;;;24.15;17.63;;;;;;;15.44;46.48;91862.13;4971129;28;20563;-90
2023/04/15 00:45:29;;;;;;;22.23;16.35;;;;;;;15.46;46.68;91856.16;4956311;28;20449;-91
2023/04/15 00:47:54;;;;;;;20.15;15.27;;;;;;;15.56;46.44;91856.47;4951354;28;20049;-90
2023/04/15 00:50:20;;;;;;;25.55;16.52;;;;;;;15.51;46.54;91858.03;4985422;28;20046;-91
2023/04/15 00:52:45;;;;;;;22.27;15.95;;;;;;;15.50;46.68;91856.56;4955217;28;20034;-90
2023/04/15 00:55:11;;;;;;;23.13;15.88;;;;;;;15.50;46.45;91851.13;4935928;28;20564;-90
2023/04/15 00:57:36;;;;;;;22.67;16.63;;;;;;;15.51;46.35;91860.75;4953988;28;20036;-91
2023/04/15 01:00:03;;;;;;;24.48;16.15;;;;;;;15.50;46.58;91858.56;4948912;28;20043;-91
2023/04/15 01:02:30;;;;;;;21.95;15.95;;;;;;;15.48;46.86;91858.34;4952337;28;20050;-90
2023/04/15 01:04:56;;;;;;;23.50;15.32;;;;;;;15.55;46.33;91854.97;4985964;28;20113;-90
2023/04/15 01:07:21;;;;;;;22.58;15.80;;;;;;;15.49;46.37;91846.94;4968359;28;20039;-91
2023/04/15 01:09:47;;;;;;;17.25;13.48;;;;;;;15.59;46.22;91853.41;4969285;28;20038;-90
2023/04/15 01:12:14;;;;;;;20.00;14.25;;;;;;;15.53;46.55;91855.50;4984727;28;20041;-92
2023/04/15 01:14:40;;;;;;;20.75;15.23;;;;;;;15.48;46.32;91858.34;4988986;28;20046;-91
2023/04/15 01:17:06;;;;;;;21.88;14.50;;;;;;;15.46;46.65;91855.41;4984526;28;20043;-91
2023/04/15 01:19:31;;;;;;;20.65;14.27;;;;;;;15.50;46.29;91851.13;4983516;28;20039;-91
2023/04/15 01:21:57;;;;;;;20.75;14.85;;;;;;;15.48;46.87;91855.63;4972114;28;20467;-91
2023/04/15 01:24:22;;;;;;;22.85;14.38;;;;;;;15.50;46.33;91845.66;4966255;28;20046;-91
2023/04/15 01:26:49;;;;;;;20.88;14.48;;;;;;;15.54;46.49;91843.34;4968658;28;20453;-91
2023/04/15 01:29:14;;;;;;;19.85;13.48;;;;;;;15.60;46.46;91835.78;4952053;28;20035;-90
2023/04/15 01:31:51;;;;;;;20.30;14.65;;;;;;;15.54;46.29;91839.91;4998281;28;20046;-90
2023/04/15 01:34:16;;;;;;;19.30;14.15;;;;;;;15.47;46.31;91837.81;4999995;28;20276;-90
2023/04/15 01:36:42;;;;;;;18.83;13.90;;;;;;;15.49;46.33;91833.31;4968269;28;20505;-91
2023/04/15 01:39:07;;;;;;;19.00;13.27;;;;;;;15.52;46.17;91834.25;4952005;28;20317;-91
2023/04/15 01:41:33;;;;;;;17.45;13.10;;;;;;;15.53;46.01;91822.81;4968699;28;20034;-91
2023/04/15 01:43:59;;;;;;;19.80;14.05;;;;;;;15.50;46.32;91834.03;4985154;28;20031;-91
2023/04/15 01:46:26;;;;;;;17.25;12.68;;;;;;;15.56;46.21;91835.41;5001788;28;20037;-90
2023/04/15 01:48:51;;;;;;;16.13;11.98;;;;;;;15.58;46.13;91832.91;5004258;28;20038;-91
2023/04/15 01:51:17;;;;;;;18.23;13.55;;;;;;;15.53;46.28;91830.25;4970476;28;20406;-90
2023/04/15 01:53:42;;;;;;;15.07;11.90;;;;;;;15.58;46.02;91838.34;5004071;28;20700;-90
2023/04/15 01:56:08;;;;;;;15.35;12.48;;;;;;;15.59;46.12;91844.53;4969589;28;20046;-90
2023/04/15 01:58:33;;;;;;;16.75;12.93;;;;;;;15.56;46.18;91829.97;4951519;28;20039;-92
2023/04/15 02:00:59;;;;;;;18.17;12.65;;;;;;;15.54;46.56;91834.44;4959958;28;20039;-91
2023/04/15 02:03:24;;;;;;;17.15;12.82;;;;;;;15.57;46.30;91839.59;4951218;28;20043;-91
2023/04/15 02:05:50;;;;;;;15.05;11.52;;;;;;;15.57;46.21;91830.69;4991139;28;20127;-89
2023/04/15 02:08:16;;;;;;;16.92;11.95;;;;;;;15.50;46.20;91828.59;4964433;28;20050;-90
2023/04/15 02:10:41;;;;;;;16.65;11.77;;;;;;;15.55;46.08;91825.75;4980907;28;20035;-90
2023/04/15 02:13:07;;;;;;;17.27;12.18;;;;;;;15.52;46.22;91824.09;4964669;28;20434;-90
2023/04/15 02:15:33;;;;;;;15.88;11.20;;;;;;;15.59;45.91;91820.00;4976044;28;20038;-90
2023/04/15 02:17:59;;;;;;;14.75;11.20;;;;;;;15.59;45.68;91822.72;4971309;28;20069;-89
2023/04/15 02:20:25;;;;;;;17.88;12.57;;;;;;;15.50;46.16;91823.88;4965972;28;20035;-90
2023/04/15 02:22:51;;;;;;;15.10;10.10;;;;;;;15.61;46.08;91814.75;4967638;28;20035;-92
2023/04/15 02:25:16;;;;;;;17.55;11.90;;;;;;;15.47;46.47;91810.59;4970226;28;20046;-90
2023/04/15 02:27:43;;;;;;;14.68;10.95;;;;;;;15.55;46.09;91805.97;5003822;28;20515;-90
2023/04/15 02:30:08;;;;;;;12.52;10.15;;;;;;;15.59;45.98;91815.25;4970540;28;20053;-92
2023/04/15 02:32:34;;;;;;;16.85;12.35;;;;;;;15.49;46.44;91814.25;5003679;28;20038;-90
2023/04/15 02:35:04;;;;;;;15.88;10.43;;;;;;;15.54;46.13;91816.13;4970356;28;20031;-90
2023/04/15 02:37:30;;;;;;;15.75;10.48;;;;;;;15.48;46.39;91812.06;4969508;28;20194;-91
2023/04/15 02:39:56;;;;;;;14.80;10.43;;;;;;;15.55;46.69;91825.03;4984098;28;20047;-90
2023/04/15 02:42:21;;;;;;;12.88;10.45;;;;;;;15.57;45.96;91820.53;4986131;28;20046;-91
2023/04/15 02:44:46;;;;;;;12.95;9.38;;;;;;;15.54;46.01;91802.50;4954451;28;20030;-88
2023/04/15 02:47:13;;;;;;;14.68;10.55;;;;;;;15.54;45.92;91823.56;4989242;28;20077;-90
2023/04/15 02:49:39;;;;;;;14.80;10.77;;;;;;;15.50;46.09;91825.88;5006625;28;20099;-90
2023/04/15 02:52:05;;;;;;;13.15;9.63;;;;;;;15.55;45.92;91820.31;4973865;28;20046;-90
2023/04/15 02:54:32;;;;;;;13.55;9.85;;;;;;;15.54;45.86;91829.00;5006984;28;20141;-91
2023/04/15 02:56:58;;;;;;;15.00;10.38;;;;;;;15.52;46.02;91824.09;4975381;28;20126;-90
2023/04/15 02:59:23;;;;;;;12.88;9.95;;;;;;;15.53;45.86;91822.09;4954228;28;20034;-91
2023/04/15 03:01:49;;;;;;;12.65;9.48;;;;;;;15.54;45.75;91824.28;5004001;28;20049;-91
2023/04/15 03:04:15;;;;;;;13.90;10.20;;;;;;;15.56;45.86;91823.78;4989844;28;20038;-89
2023/04/15 03:06:40;;;;;;;12.93;9.85;;;;;;;15.54;45.95;91821.56;4992210;28;20042;-91
2023/04/15 03:09:08;;;;;;;10.70;8.43;;;;;;;15.59;45.99;91820.00;4966674;28;20031;-90
2023/04/15 03:11:35;;;;;;;12.45;9.00;;;;;;;15.59;45.81;91814.56;4997860;28;20046;-92
2023/04/15 03:14:01;;;;;;;12.80;9.88;;;;;;;15.54;46.01;91818.84;4970395;28;20046;-90
2023/04/15 03:16:26;;;;;;;12.95;8.82;;;;;;;15.56;45.84;91812.91;4953197;28;20560;-90
2023/04/15 03:18:51;;;;;;;10.93;8.23;;;;;;;15.58;45.52;91819.28;5003444;28;20069;-91
2023/04/15 03:21:18;;;;;;;12.15;8.93;;;;;;;15.62;45.79;91821.66;4973230;28;20101;-91
2023/04/15 03:23:44;;;;;;;12.48;9.10;;;;;;;15.52;45.95;91818.63;5006277;28;20069;-90
2023/04/15 03:26:09;;;;;;;14.27;9.32;;;;;;;15.56;45.91;91826.50;4988596;28;20038;-90
2023/04/15 03:28:36;;;;;;;15.15;9.40;;;;;;;15.56;45.79;91827.25;4990201;28;20038;-91
2023/04/15 03:31:01;;;;;;;15.18;8.55;;;;;;;15.58;45.99;91826.72;4973189;28;20031;-90
2023/04/15 03:33:26;;;;;;;13.50;9.20;;;;;;;15.47;46.06;91826.94;4989406;28;20089;-89
2023/04/15 03:35:52;;;;;;;12.75;8.32;;;;;;;15.58;45.65;91830.16;4989325;28;20038;-89
2023/04/15 03:38:17;;;;;;;13.55;9.05;;;;;;;15.53;45.64;91833.72;4989227;28;20445;-89
2023/04/15 03:40:44;;;;;;;13.02;9.45;;;;;;;15.53;45.74;91822.09;4988984;28;20464;-90
2023/04/15 03:43:10;;;;;;;10.80;7.40;;;;;;;15.57;45.73;91825.25;4989238;28;20042;-90
2023/04/15 03:45:35;;;;;;;12.30;8.77;;;;;;;15.46;46.11;91826.19;4995332;28;20047;-89
2023/04/15 03:48:00;;;;;;;11.98;8.75;;;;;;;15.46;46.13;91828.91;4983931;28;20039;-90
2023/04/15 03:50:26;;;;;;;14.75;9.73;;;;;;;15.48;45.97;91825.66;4985854;28;20363;-89
2023/04/15 03:52:52;;;;;;;12.85;8.52;;;;;;;15.48;46.21;91831.13;4999471;28;20043;-91
2023/04/15 03:55:17;;;;;;;12.68;8.43;;;;;;;15.51;46.07;91830.06;4983292;28;20405;-89
2023/04/15 03:57:42;;;;;;;11.40;8.48;;;;;;;15.47;46.16;91824.22;4969583;28;20054;-91
2023/04/15 04:00:09;;;;;;;11.25;8.30;;;;;;;15.46;45.83;91828.19;4969436;28;20039;-90
2023/04/15 04:02:35;;;;;;;12.45;8.48;;;;;;;15.51;45.72;91828.06;4989216;28;20047;-90
2023/04/15 04:05:00;;;;;;;13.60;8.65;;;;;;;15.46;45.88;91828.19;4987443;28;20057;-92
2023/04/15 04:07:26;;;;;;;9.77;7.40;;;;;;;15.54;45.95;91820.84;4987219;28;20042;-89
2023/04/15 04:09:51;;;;;;;10.48;7.70;;;;;;;15.53;45.73;91833.72;5005317;28;20490;-90
2023/04/15 04:12:16;;;;;;;9.25;7.35;;;;;;;15.55;45.59;91830.47;4988123;28;20050;-90
2023/04/15 04:14:42;;;;;;;12.15;7.72;;;;;;;15.54;45.47;91835.19;5005004;28;20100;-89
2023/04/15 04:17:07;;;;;;;14.60;8.55;;;;;;;15.47;45.64;91833.09;4984266;28;20046;-89
2023/04/15 04:19:33;;;;;;;12.20;8.45;;;;;;;15.48;45.78;91833.84;5005127;28;20037;-91
2023/04/15 04:21:58;;;;;;;9.57;7.78;;;;;;;15.47;45.76;91835.09;4987324;28;20057;-89
2023/04/15 04:24:23;;;;;;;12.18;8.30;;;;;;;15.50;45.54;91837.50;4984837;28;20061;-90
2023/04/15 04:26:49;;;;;;;10.25;7.20;;;;;;;15.57;45.82;91836.16;4979152;28;20342;-91
2023/04/15 04:29:15;;;;;;;12.65;8.43;;;;;;;15.41;46.20;91844.13;5004218;28;20508;-89
2023/04/15 04:31:40;;;;;;;10.35;7.78;;;;;;;15.48;45.91;91840.00;4988168;28;20038;-90
2023/04/15 04:34:05;;;;;;;9.73;6.90;;;;;;;15.50;45.88;91839.50;5004099;28;20375;-89
2023/04/15 04:36:31;;;;;;;11.63;7.75;;;;;;;15.42;45.92;91842.13;4981619;28;20034;-90
2023/04/15 04:38:56;;;;;;;11.05;7.18;;;;;;;15.47;46.00;91854.16;4968634;28;20027;-88
2023/04/15 04:41:22;;;;;;;10.90;7.85;;;;;;;15.49;45.88;91857.81;4975951;28;20461;-90
2023/04/15 04:43:47;;;;;;;10.23;6.85;;;;;;;15.53;45.61;91857.50;4984811;28;20268;-90
2023/04/15 04:46:13;;;;;;;10.27;6.95;;;;;;;15.47;45.98;91859.59;4952074;28;20051;-91
2023/04/15 04:48:38;;;;;;;10.13;6.85;;;;;;;15.49;45.78;91859.81;4980195;28;20030;-90
2023/04/15 04:51:04;;;;;;;8.25;6.32;;;;;;;15.52;45.59;91866.94;4967811;28;20085;-89
2023/04/15 04:53:30;;;;;;;9.82;6.85;;;;;;;15.44;45.99;91866.84;4967987;28;20074;-91
2023/04/15 04:55:55;;;;;;;9.43;6.80;;;;;;;15.48;45.57;91866.53;4968719;28;20349;-90
2023/04/15 04:58:20;;;;;;;10.25;7.00;;;;;;;15.41;45.98;91871.34;4973977;28;20368;-90
2023/04/15 05:00:46;;;;;;;10.70;7.25;;;;;;;15.48;45.89;91867.25;4987092;28;20082;-88
2023/04/15 05:03:11;;;;;;;8.02;5.38;;;;;;;15.50;45.71;91883.06;4987423;28;20030;-90
2023/04/15 05:05:39;;;;;;;9.82;7.28;;;;;;;15.40;45.83;91886.22;4998021;28;20049;-91
2023/04/15 05:08:05;;;;;;;8.18;6.65;;;;;;;15.40;46.10;91888.22;5001379;28;20038;-89
2023/04/15 05:10:31;;;;;;;8.07;5.93;;;;;;;15.47;45.68;91884.84;5003774;28;20040;-89
2023/04/15 05:12:56;;;;;;;9.35;6.22;;;;;;;15.41;46.25;91890.41;4965250;28;20550;-89
2023/04/15 05:15:22;;;;;;;8.35;6.20;;;;;;;15.47;45.84;91879.41;4951028;28;22324;-90
2023/04/15 05:17:47;;;;;;;9.98;6.90;;;;;;;15.46;45.83;91890.81;4997856;28;20042;-90
2023/04/15 05:20:13;;;;;;;8.70;6.38;;;;;;;15.42;45.79;91889.16;4983860;28;20043;-89
2023/04/15 05:22:38;;;;;;;8.68;5.78;;;;;;;15.51;45.64;91889.97;5000030;28;20549;-89
2023/04/15 05:25:04;;;;;;;8.27;6.03;;;;;;;15.46;46.03;91888.09;4986916;28;20043;-90
2023/04/15 05:27:30;;;;;;;9.38;6.70;;;;;;;15.47;45.64;91897.72;4986839;28;20129;-90
2023/04/15 05:29:55;;;;;;;9.40;6.30;;;;;;;15.50;45.70;91894.69;4984710;28;20085;-89
2023/04/15 05:32:21;;;;;;;9.52;6.97;;;;;;;15.43;45.84;91892.59;4986634;28;20050;-91
2023/04/15 05:34:46;;;;;;;9.10;6.20;;;;;;;15.44;45.70;91897.53;5004125;28;20027;-90
2023/04/15 05:37:11;;;;;;;7.63;6.13;;;;;;;15.43;45.75;91898.78;4983560;28;20058;-89
2023/04/15 05:39:37;;;;;;;9.07;6.60;;;;;;;15.48;45.69;91902.66;5000311;28;20520;-90
2023/04/15 05:42:04;;;;;;;8.13;6.38;;;;;;;15.45;46.03;91898.25;4987027;28;20042;-90
2023/04/15 05:44:30;;;;;;;10.63;6.97;;;;;;;15.41;46.16;91908.72;5003677;28;20034;-88
2023/04/15 05:46:55;;;;;;;7.68;5.63;;;;;;;15.43;45.79;91898.06;4986949;28;20049;-91
2023/04/15 05:49:21;;;;;;;8.95;5.80;;;;;;;15.40;46.02;91913.44;4970617;28;20045;-90
2023/04/15 05:51:47;;;;;;;8.43;5.40;;;;;;;15.40;45.99;91913.44;4997071;28;20043;-90
2023/04/15 05:54:16;;;;;;;8.13;6.25;;;;;;;15.40;45.84;91912.72;4970102;28;20063;-89
2023/04/15 05:56:41;;;;;;;7.57;5.65;;;;;;;15.38;45.73;91921.41;4968183;28;20149;-89
2023/04/15 05:59:07;;;;;;;7.03;5.57;;;;;;;15.40;46.17;91915.44;4974455;28;20045;-89
2023/04/15 06:01:33;;;;;;;8.25;6.43;;;;;;;15.34;45.77;91910.13;5001851;28;20045;-90
2023/04/15 06:03:59;;;;;;;8.07;5.35;;;;;;;15.30;45.89;91920.59;4964835;28;20063;-90
2023/04/15 06:06:24;;;;;;;6.68;5.18;;;;;;;15.33;46.12;91916.84;4967823;28;20106;-90
2023/04/15 06:08:51;;;;;;;7.68;5.47;;;;;;;15.33;45.89;91916.84;4967875;28;20039;-91
2023/04/15 06:11:16;;;;;;;7.82;5.88;;;;;;;15.30;46.02;91920.59;4967687;28;20055;-91
2023/04/15 06:13:41;;;;;;;8.07;5.15;;;;;;;15.34;45.98;91928.47;4986749;28;20054;-91
2023/04/15 06:16:07;;;;;;;8.38;5.15;;;;;;;15.33;45.92;91922.28;4986324;28;20038;-90
2023/04/15 06:18:32;;;;;;;10.13;5.88;;;;;;;15.42;45.66;91931.97;4979860;28;20047;-90
2023/04/15 06:20:59;;;;;;;7.57;5.10;;;;;;;15.37;45.79;91930.13;4952824;28;20039;-89
2023/04/15 06:23:24;;;;;;;13.20;8.10;;;;;;;15.41;45.52;91931.25;4962690;28;20046;-90
2023/04/15 06:25:50;;;;;;;10.40;5.28;;;;;;;15.36;46.12;91923.22;4971916;28;20039;-90
2023/04/15 06:28:15;;;;;;;11.48;6.10;;;;;;;15.38;46.03;91917.94;4955115;28;20043;-89
2023/04/15 06:30:41;;;;;;;16.75;6.63;;;;;;;15.39;46.18;91927.59;4971453;28;20058;-89
2023/04/15 06:33:08;;;;;;;13.82;7.00;;;;;;;15.46;45.76;91934.38;5006964;28;20089;-91
2023/04/15 06:35:33;;;;;;;15.35;6.55;;;;;;;15.46;45.75;91931.66;4991701;28;20035;-90
2023/04/15 06:37:59;;;;;;;13.27;5.72;;;;;;;15.41;45.65;91933.25;4975405;28;20587;-90
2023/04/15 06:40:24;;;;;;;13.07;6.43;;;;;;;15.38;46.09;91937.75;4980117;28;20039;-91
2023/04/15 06:42:50;;;;;;;17.77;8.30;;;;;;;15.38;45.90;91935.03;4972775;28;20051;-92
2023/04/15 06:45:16;;;;;;;19.13;8.00;;;;;;;15.41;45.95;91939.41;4968803;28;20035;-91
2023/04/15 06:47:42;;;;;;;28.00;9.13;;;;;;;15.39;46.15;91952.81;4972282;28;20039;-91
2023/04/15 06:50:08;;;;;;;31.52;9.63;;;;;;;15.51;45.63;91947.16;4980286;28;20505;-92
2023/04/15 06:52:34;;;;;;;32.97;11.40;;;;;;;15.43;45.86;91942.34;4990916;28;20042;-92
2023/04/15 06:55:01;;;;;;;31.98;12.65;;;;;;;15.43;45.78;91945.06;4975648;28;20031;-91
2023/04/15 06:57:27;;;;;;;44.17;17.05;;;;;;;15.44;45.93;91943.09;4964927;28;20043;-92
2023/04/15 06:59:53;;;;;;;53.50;23.35;;;;;;;15.50;45.62;91948.41;5004187;28;20137;-91
2023/04/15 07:02:18;;;;;;;48.30;21.27;;;;;;;15.44;45.76;91957.44;4970292;28;20514;-90
2023/04/15 07:04:44;;;;;;;43.45;20.17;;;;;;;15.44;45.73;91946.53;5001887;28;20066;-90
2023/04/15 07:07:09;;;;;;;51.90;25.92;;;;;;;15.50;45.36;91953.88;4983124;28;20031;-92
2023/04/15 07:09:35;;;;;;;50.15;21.38;;;;;;;15.38;45.60;91956.81;4971300;28;20093;-90
2023/04/15 07:12:00;;;;;;;49.50;22.52;;;;;;;15.38;45.78;91956.81;4989052;28;20047;-90
2023/04/15 07:14:26;;;;;;;52.92;22.65;;;;;;;15.41;45.79;91961.19;4970588;28;20043;-92
2023/04/15 07:16:55;;;;;;;44.53;21.27;;;;;;;15.37;45.58;91958.06;4987477;28;20050;-93
2023/04/15 07:19:20;;;;;;;58.90;23.90;;;;;;;15.50;45.49;91962.78;4950675;28;20053;-90
2023/04/15 07:21:47;;;;;;;55.85;22.10;;;;;;;15.44;45.61;91964.88;4955226;28;20435;-91
2023/04/15 07:24:15;;;;;;;49.55;22.02;;;;;;;15.33;45.91;91973.28;4973689;28;20061;-91
2023/04/15 07:26:41;;;;;;;41.42;18.23;;;;;;;15.28;44.78;91965.94;5006346;28;20047;-89
2023/04/15 07:29:06;;;;;;;25.27;12.90;;;;;;;15.38;44.26;91966.97;4965377;28;20047;-90
2023/04/15 07:31:32;;;;;;;602.55;84.03;;;;;;;15.33;43.13;91976.72;4971150;28;20101;-91
2023/04/15 07:33:57;;;;;;;874.97;131.30;;;;;;;15.23;42.54;91983.13;4984602;28;20054;-93
2023/04/15 07:36:23;;;;;;;437.85;53.90;;;;;;;14.95;42.39;91987.09;5003451;28;20039;-93
2023/04/15 07:38:48;;;;;;;543.03;66.28;;;;;;;14.64;42.36;91988.63;4971031;28;20038;-91
2023/04/15 07:41:14;;;;;;;860.45;123.07;;;;;;;14.45;42.73;91996.13;4965039;28;20044;-92
2023/04/15 07:43:40;;;;;;;660.03;81.45;;;;;;;14.16;42.83;91992.34;5006820;28;20041;-92
2023/04/15 07:46:05;;;;;;;1261.95;189.38;;;;;;;13.94;43.18;92006.97;4974237;28;20035;-93
2023/04/15 07:48:31;;;;;;;1227.68;179.50;;;;;;;13.77;43.41;92011.91;5007042;28;20043;-92
2023/04/15 07:50:56;;;;;;;1068.68;152.52;;;;;;;13.51;43.45;92012.50;4973891;28;20145;-92
2023/04/15 07:53:22;;;;;;;1034.07;161.32;;;;;;;13.40;44.27;92020.78;4973909;28;20050;-92
2023/04/15 07:55:47;;;;;;;831.05;115.32;;;;;;;13.20;44.45;92022.00;5008107;28;20034;-92
2023/04/15 07:58:12;;;;;;;1093.50;171.20;;;;;;;13.15;44.61;92024.75;4970173;28;20278;-92
2023/04/15 08:00:38;;;;;;;1199.97;179.88;;;;;;;13.03;44.93;92014.00;5006680;28;20045;-91
2023/04/15 08:03:03;;;;;;;584.17;69.25;;;;;;;12.96;44.59;92019.28;4965229;28;20038;-90
2023/04/15 08:05:29;;;;;;;648.35;79.82;;;;;;;13.04;44.99;92023.59;5007396;28;20038;-92
2023/04/15 08:07:55;;;;;;;611.55;80.25;;;;;;;13.19;45.15;92025.22;4958573;28;20050;-91
2023/04/15 08:10:21;;;;;;;536.58;75.68;;;;;;;13.27;44.67;92026.09;5003045;28;20053;-92
2023/04/15 08:12:48;;;;;;;552.28;75.45;;;;;;;13.44;44.36;92025.91;5007648;28;20042;-91
2023/04/15 08:15:13;;;;;;;470.65;67.25;;;;;;;13.62;44.23;92025.22;4994621;28;20054;-91
2023/04/15 08:17:39;;;;;;;486.65;67.07;;;;;;;13.82;44.19;92027.41;5002393;28;20528;-90
2023/04/15 08:20:05;;;;;;;445.05;68.75;;;;;;;13.85;44.02;92025.66;4986297;28;20061;-91
2023/04/15 08:22:30;;;;;;;430.40;76.22;;;;;;;13.89;43.27;92024.09;4998850;28;20073;-90
2023/04/15 08:24:56;;;;;;;407.98;68.65;;;;;;;14.05;43.82;92025.84;4970819;28;20055;-90
2023/04/15 08:27:22;;;;;;;409.13;65.85;;;;;;;14.11;43.80;92025.75;4989156;28;20030;-90
2023/04/15 08:29:47;;;;;;;417.95;68.35;;;;;;;14.18;43.30;92030.59;5006298;28;20412;-90
2023/04/15 08:32:13;;;;;;;390.75;67.63;;;;;;;14.20;43.22;92032.81;4962043;28;20046;-91
2023/04/15 08:34:39;;;;;;;387.15;67.18;;;;;;;14.23;43.59;92037.22;4969292;28;20052;-91
2023/04/15 08:37:05;;;;;;;338.10;62.10;;;;;;;14.32;43.45;92028.66;4952640;28;20038;-91
2023/04/15 08:39:30;;;;;;;397.95;65.30;;;;;;;14.33;43.19;92027.41;4999975;28;20553;-91
2023/04/15 08:42:04;;;;;;;368.90;63.53;;;;;;;14.47;43.24;92033.66;4969722;28;20066;-90
2023/04/15 08:44:32;;;;;;;369.80;64.18;;;;;;;14.54;43.27;92030.31;4980248;28;20047;-90
2023/04/15 08:47:01;;;;;;;384.55;65.05;;;;;;;14.53;42.96;92040.47;4983654;28;20054;-91
2023/04/15 08:49:27;;;;;;;337.20;62.00;;;;;;;14.59;43.00;92035.69;4966799;28;20402;-91
2023/04/15 08:51:52;;;;;;;367.85;67.40;;;;;;;14.53;43.10;92042.44;4969696;28;20027;-90
2023/04/15 08:54:19;;;;;;;352.63;63.50;;;;;;;14.56;43.28;92044.13;5000884;28;20051;-91
2023/04/15 08:56:44;;;;;;;329.00;58.67;;;;;;;14.64;43.14;92050.44;4996432;28;20423;-91
2023/04/15 08:59:11;;;;;;;359.92;60.33;;;;;;;14.65;43.20;92047.22;4996356;28;20031;-90
2023/04/15 09:01:36;;;;;;;334.77;59.67;;;;;;;14.68;42.75;92042.72;5003360;28;20039;-91
2023/04/15 09:04:02;;;;;;;307.55;57.22;;;;;;;14.68;42.92;92048.16;5002768;28;20048;-90
2023/04/15 09:06:28;;;;;;;307.23;56.25;;;;;;;14.70;43.04;92048.38;4974490;28;20030;-90
2023/04/15 09:08:54;;;;;;;293.33;55.85;;;;;;;14.75;42.98;92058.41;4994196;28;20050;-90
2023/04/15 09:11:20;;;;;;;311.27;60.67;;;;;;;14.76;42.93;92059.88;4967699;28;20332;-90
2023/04/15 09:13:46;;;;;;;291.15;58.92;;;;;;;14.78;43.06;92060.09;4985671;28;20093;-91
2023/04/15 09:16:12;;;;;;;298.23;60.03;;;;;;;14.80;43.05;92059.59;5000817;28;20039;-90
2023/04/15 09:18:37;;;;;;;304.55;63.30;;;;;;;14.80;42.91;92054.88;4985625;28;20046;-90
2023/04/15 09:21:13;;;;;;;293.10;61.72;;;;;;;14.88;43.17;92069.34;4952923;28;20127;-90
2023/04/15 09:23:40;;;;;;;306.48;64.50;;;;;;;14.86;43.02;92054.78;5001069;28;20047;-90
2023/04/15 09:26:06;;;;;;;299.77;63.35;;;;;;;14.82;43.11;92060.53;4967066;28;20046;-90
2023/04/15 09:28:31;;;;;;;288.10;63.88;;;;;;;14.84;43.12;92065.47;5000191;28;20042;-91
2023/04/15 09:31:00;;;;;;;287.55;63.78;;;;;;;14.77;43.25;92072.22;5001421;28;20043;-91
2023/04/15 09:33:26;;;;;;;262.67;62.10;;;;;;;14.79;43.00;92077.16;5003509;28;20125;-91
2023/04/15 09:36:00;;;;;;;283.73;60.20;;;;;;;14.78;43.18;92079.13;4988740;28;20031;-91
2023/04/15 09:38:26;;;;;;;268.75;58.38;;;;;;;14.76;43.13;92078.94;4991969;28;20039;-90
2023/04/15 09:40:51;;;;;;;251.63;59.47;;;;;;;14.81;43.11;92082.81;5001252;28;20038;-91
2023/04/15 09:43:16;;;;;;;272.27;62.35;;;;;;;14.84;43.03;92079.06;5002386;28;20043;-91
2023/04/15 09:45:52;;;;;;;262.15;59.28;;;;;;;14.88;43.26;92074.06;4986802;28;20051;-93
2023/04/15 09:48:26;;;;;;;267.13;61.80;;;;;;;14.90;42.84;92085.16;4983497;28;20137;-91
2023/04/15 09:50:52;;;;;;;248.55;60.50;;;;;;;14.87;43.51;92076.03;5006586;28;20031;-91
2023/04/15 09:53:21;;;;;;;265.05;65.82;;;;;;;14.87;43.05;92089.63;4961083;28;20058;-90
2023/04/15 09:55:54;;;;;;;261.95;66.72;;;;;;;14.86;42.97;92069.13;5005356;28;20089;-90
2023/04/15 09:58:22;;;;;;;237.55;63.45;;;;;;;14.98;43.70;92077.81;4962859;28;20533;-89
2023/04/15 10:00:49;;;;;;;282.20;73.47;;;;;;;14.87;43.38;92084.19;5005654;28;20461;-91
2023/04/15 10:03:20;;;;;;;295.08;83.68;;;;;;;14.88;43.28;92085.66;4973847;28;20524;-93
2023/04/15 10:05:47;;;;;;;278.42;83.10;;;;;;;14.92;43.24;92086.09;5005134;28;20045;-92
2023/04/15 10:08:12;;;;;;;288.45;86.65;;;;;;;14.97;43.33;92087.25;4971701;28;20039;-94
2023/04/15 10:10:39;;;;;;;265.27;86.72;;;;;;;14.90;43.46;92075.00;4995712;28;20038;-93
2023/04/15 10:13:05;;;;;;;268.33;95.72;;;;;;;14.90;43.40;92088.59;4961945;28;20038;-93
2023/04/15 10:15:33;;;;;;;258.27;93.22;;;;;;;14.96;43.49;92091.22;4980394;28;20046;-93
2023/04/15 10:17:58;;;;;;;291.95;94.30;;;;;;;15.00;43.40;92088.94;4977688;28;20057;-93
2023/04/15 10:20:24;;;;;;;258.63;95.32;;;;;;;14.96;43.29;92089.22;4957193;28;20030;-92
2023/04/15 10:22:50;;;;;;;286.45;92.57;;;;;;;15.03;43.76;92096.06;4977081;28;20042;-93
2023/04/15 10:25:26;;;;;;;322.67;96.75;;;;;;;14.98;43.76;92097.59;4957670;28;20043;-95
2023/04/15 10:28:07;;;;;;;298.40;89.57;;;;;;;15.00;43.37;92103.25;4992649;28;20070;-92
2023/04/15 10:30:36;;;;;;;247.27;86.03;;;;;;;14.99;43.32;92101.78;4977016;28;20430;-93
2023/04/15 10:33:13;;;;;;;258.70;88.78;;;;;;;15.07;43.38;92107.38;5006641;28;20054;-94
2023/04/15 10:35:39;;;;;;;261.30;81.68;;;;;;;15.10;43.69;92111.78;4959785;28;20132;-93
2023/04/15 10:38:32;;;;;;;272.48;89.18;;;;;;;15.05;43.32;92107.88;4950251;28;20042;-87
2023/04/15 10:41:22;;;;;;;257.40;85.15;;;;;;;14.98;43.45;92111.22;5000600;28;20038;-92
2023/04/15 10:43:55;;;;;;;267.42;88.13;;;;;;;15.00;43.42;92108.72;4975768;28;20468;-92
2023/04/15 10:46:36;;;;;;;264.70;90.75;;;;;;;15.03;43.44;92123.25;4953329;28;20046;-91
2023/04/15 10:49:13;;;;;;;264.90;91.00;;;;;;;15.03;43.45;92120.53;4990432;28;20046;-92
2023/04/15 10:51:41;;;;;;;259.20;87.95;;;;;;;15.12;43.63;92122.88;4935228;28;20129;-93
2023/04/15 10:54:16;;;;;;;259.25;89.30;;;;;;;15.07;43.31;92124.44;4991961;28;20544;-93
2023/04/15 10:56:43;;;;;;;251.57;94.10;;;;;;;15.00;43.42;92129.75;4974426;28;20046;-93
2023/04/15 10:59:09;;;;;;;244.88;89.85;;;;;;;15.03;43.67;92121.28;4993159;28;20038;-93
2023/04/15 11:01:53;;;;;;;261.85;91.50;;;;;;;15.08;43.54;92117.75;4976027;28;20037;-94
2023/04/15 11:04:50;;;;;;;240.82;91.68;;;;;;;15.05;43.42;92126.94;4973342;28;20043;-94
2023/04/15 11:07:47;;;;;;;244.40;87.95;;;;;;;15.10;43.59;92133.56;4983410;28;20035;-94
2023/04/15 11:10:25;;;;;;;268.05;91.75;;;;;;;15.07;43.38;92135.31;5006981;28;20057;-94
2023/04/15 11:12:53;;;;;;;253.43;90.88;;;;;;;15.03;43.41;92143.06;4982856;28;20125;-93
2023/04/15 11:15:34;;;;;;;247.35;90.72;;;;;;;15.04;43.43;92147.25;4968102;28;20049;-93